»·PEaware :: SWA6289 KLAS-KRNO

SWA6289 :: KLAS-KRNO

FLIGHT INFORMATION

Flight Status: Arrived
Operator:
Southwest Airlines
More flights by this operator :: More flights under this callsign
Pilot: Aundrey S. (17120)
Aircraft: BOEING 737-900
(B739)
More flights by this aircraft type
Origin: KLAS McCarran Intl
United States
Destination: KRNO Reno/Tahoe Intl
United States
More flights between these airports :: More routes between these airports
Route: +SHEAD1 KENNO RUSME2 HLDMM KENNO2
File this flight plan on PilotEdge
Remarks:
Altitude:
(Current/Filed)
34,000ft
Speed:
(Current/Filed)
450kts
Departed: 07-Feb-19 01:23 PM
Arrived: 07-Feb-19 02:26 PM
Distance/Time
Traveled:
300nm/1:03
Distance/Time
To Go:
Arrived

Flight Plot

Page will automatically refresh every two minutes.

Flight plan parsing failed; only flown route is shown


Map Options




Map Legend


Flown Route
Filed Route
Departure Airport
Arrival Airport
Navaid (VOR, NDB)
Fix

Horizontal Profiles

Position Reports

Time Latitude Longitude Heading Altitude Ground
Speed
07-Feb-19 12:17 36.080551 -115.145665 270 2091ft 0kts
07-Feb-19 12:18 36.080551 -115.145665 270 2091ft 0kts
07-Feb-19 12:19 36.080551 -115.145665 270 2091ft 0kts
07-Feb-19 12:20 36.080551 -115.145665 270 2091ft 0kts
07-Feb-19 12:21 36.080551 -115.145665 270 2091ft 0kts
07-Feb-19 12:22 36.080551 -115.145665 270 2091ft 0kts
07-Feb-19 12:23 36.080551 -115.145665 270 2091ft 0kts
07-Feb-19 12:24 36.080551 -115.145665 270 2091ft 0kts
07-Feb-19 12:25 36.080551 -115.145665 270 2091ft 0kts
07-Feb-19 12:26 36.080551 -115.145665 270 2091ft 0kts
07-Feb-19 12:27 36.080551 -115.145665 270 2091ft 0kts
07-Feb-19 12:28 36.080551 -115.145665 270 2091ft 0kts
07-Feb-19 12:29 36.080551 -115.145665 270 2091ft 0kts
07-Feb-19 12:30 36.080551 -115.145665 270 2091ft 0kts
07-Feb-19 12:31 36.080551 -115.145665 270 2091ft 0kts
07-Feb-19 12:32 36.080551 -115.145665 270 2091ft 0kts
07-Feb-19 12:33 36.080551 -115.145665 270 2091ft 0kts
07-Feb-19 12:34 36.080551 -115.145665 270 2091ft 0kts
07-Feb-19 12:35 36.080551 -115.145665 270 2091ft 0kts
07-Feb-19 12:36 36.080551 -115.145665 270 2091ft 0kts
07-Feb-19 12:37 36.080551 -115.145665 270 2091ft 0kts
07-Feb-19 12:38 36.080551 -115.145665 270 2091ft 0kts
07-Feb-19 12:39 36.080551 -115.145665 270 2091ft 0kts
07-Feb-19 12:40 36.080551 -115.145665 270 2091ft 0kts
07-Feb-19 12:41 36.080551 -115.145665 270 2091ft 0kts
07-Feb-19 12:42 36.080551 -115.145665 270 2091ft 0kts
07-Feb-19 12:43 36.080551 -115.145665 270 2091ft 0kts
07-Feb-19 12:44 36.080551 -115.145665 270 2091ft 0kts
07-Feb-19 12:45 36.080551 -115.145665 270 2091ft 0kts
07-Feb-19 12:46 36.080551 -115.145665 270 2091ft 0kts
07-Feb-19 12:47 36.080551 -115.145665 270 2091ft 0kts
07-Feb-19 12:48 36.080551 -115.145665 270 2091ft 0kts
07-Feb-19 12:49 36.080551 -115.145665 270 2091ft 0kts
07-Feb-19 12:50 36.080551 -115.145665 270 2091ft 0kts
07-Feb-19 12:51 36.080551 -115.145665 270 2091ft 0kts
07-Feb-19 12:52 36.080551 -115.145665 270 2091ft 0kts
07-Feb-19 12:53 36.080551 -115.145665 270 2091ft 0kts
07-Feb-19 12:54 36.080551 -115.145665 270 2091ft 0kts
07-Feb-19 12:55 36.080551 -115.145665 270 2091ft 0kts
07-Feb-19 12:56 36.080551 -115.145665 270 2091ft 0kts
07-Feb-19 12:57 36.080551 -115.145665 270 2091ft 0kts
07-Feb-19 12:58 36.080551 -115.145665 270 2091ft 0kts
07-Feb-19 12:59 36.080551 -115.145665 270 2091ft 0kts
07-Feb-19 13:00 36.080551 -115.145665 270 2091ft 0kts
07-Feb-19 13:01 36.080551 -115.145665 270 2091ft 0kts
07-Feb-19 13:02 36.080551 -115.145665 270 2091ft 0kts
07-Feb-19 13:03 36.080551 -115.145665 270 2091ft 0kts
07-Feb-19 13:04 36.080551 -115.145665 270 2091ft 0kts
07-Feb-19 13:05 36.080551 -115.145665 270 2091ft 0kts
07-Feb-19 13:06 36.080548 -115.145082 270 2090ft 1kts
07-Feb-19 13:07 36.080548 -115.145037 270 2090ft 0kts
07-Feb-19 13:08 36.080548 -115.145037 270 2090ft 0kts
07-Feb-19 13:09 36.080548 -115.145037 270 2090ft 0kts
07-Feb-19 13:10 36.080548 -115.145037 270 2090ft 0kts
07-Feb-19 13:11 36.080548 -115.145037 270 2090ft 0kts
07-Feb-19 13:12 36.080548 -115.145037 270 2090ft 0kts
07-Feb-19 13:13 36.080548 -115.145037 270 2090ft 0kts
07-Feb-19 13:14 36.080464 -115.145120 153 2090ft 2kts
07-Feb-19 13:15 36.078350 -115.144344 106 2092ft 9kts
07-Feb-19 13:16 36.078267 -115.138680 90 2075ft 18kts
07-Feb-19 13:17 36.078274 -115.131056 89 2053ft 23kts
07-Feb-19 13:18 36.078285 -115.123281 89 2035ft 17kts
07-Feb-19 13:19 36.077493 -115.121512 132 2036ft 0kts
07-Feb-19 13:20 36.077493 -115.121512 132 2036ft 0kts
07-Feb-19 13:21 36.076873 -115.121264 176 2037ft 8kts
07-Feb-19 13:22 36.076293 -115.142956 270 2170ft 190kts
07-Feb-19 13:23 36.076249 -115.229471 269 3516ft 306kts
07-Feb-19 13:25 36.027371 -115.288305 180 4411ft 273kts
07-Feb-19 13:26 35.958989 -115.315649 224 4962ft 250kts
07-Feb-19 13:27 35.905336 -115.380009 224 5919ft 263kts
07-Feb-19 13:28 35.884799 -115.465947 272 8194ft 278kts
07-Feb-19 13:29 35.887371 -115.562169 273 9696ft 281kts
07-Feb-19 13:30 35.889760 -115.666167 272 11221ft 317kts
07-Feb-19 13:31 35.891824 -115.775507 271 12866ft 320kts
07-Feb-19 13:32 35.893755 -115.886648 271 14877ft 328kts
07-Feb-19 13:33 35.917665 -115.993366 312 17171ft 341kts
07-Feb-19 13:34 35.987858 -116.075681 314 19976ft 353kts
07-Feb-19 13:35 36.060904 -116.160044 314 22497ft 364kts
07-Feb-19 13:36 36.135356 -116.246207 314 23344ft 367kts
07-Feb-19 13:37 36.211257 -116.334240 314 25093ft 377kts
07-Feb-19 13:38 36.288611 -116.424177 313 27096ft 387kts
07-Feb-19 13:39 36.367081 -116.515571 313 29425ft 381kts
07-Feb-19 13:40 36.447167 -116.609240 313 30740ft 398kts
07-Feb-19 13:40 36.513897 -116.687419 312 32349ft 394kts
07-Feb-19 13:42 36.613880 -116.786611 323 34305ft 397kts
07-Feb-19 13:43 36.708547 -116.858452 323 34359ft 404kts
07-Feb-19 13:43 36.791666 -116.921780 323 34347ft 429kts
07-Feb-19 13:44 36.893454 -116.999388 323 34319ft 428kts
07-Feb-19 13:46 37.012367 -117.090418 323 34294ft 429kts
07-Feb-19 13:47 37.114257 -117.168672 323 34282ft 428kts
07-Feb-19 13:47 37.199108 -117.234037 323 34270ft 428kts
07-Feb-19 13:48 37.300228 -117.312756 319 34247ft 425kts
07-Feb-19 13:50 37.405590 -117.423933 315 34251ft 424kts
07-Feb-19 13:50 37.480442 -117.504265 315 34252ft 424kts
07-Feb-19 13:51 37.556203 -117.615198 304 34250ft 418kts
07-Feb-19 13:52 37.628075 -117.731345 304 34259ft 419kts
07-Feb-19 13:53 37.699824 -117.847142 304 34257ft 419kts
07-Feb-19 13:54 37.771908 -117.963616 304 34252ft 419kts
07-Feb-19 13:55 37.843745 -118.079960 304 34235ft 419kts
07-Feb-19 13:56 37.915475 -118.196443 304 34220ft 419kts
07-Feb-19 13:57 37.987182 -118.313244 304 34217ft 419kts
07-Feb-19 13:58 38.058884 -118.430451 304 34216ft 419kts
07-Feb-19 13:59 38.130363 -118.547663 304 34215ft 420kts
07-Feb-19 14:00 38.200880 -118.663713 303 34219ft 420kts
07-Feb-19 14:01 38.272403 -118.781455 307 34221ft 422kts
07-Feb-19 14:02 38.378692 -118.851532 335 34249ft 439kts
07-Feb-19 14:03 38.492463 -118.903352 335 33712ft 434kts
07-Feb-19 14:04 38.604604 -118.954581 335 31034ft 430kts
07-Feb-19 14:05 38.718069 -119.006602 336 28341ft 431kts
07-Feb-19 14:06 38.827668 -119.056922 337 25613ft 408kts
07-Feb-19 14:07 38.932181 -119.105098 337 22900ft 392kts
07-Feb-19 14:08 39.033308 -119.151847 338 20171ft 378kts
07-Feb-19 14:09 39.129054 -119.196256 338 17459ft 363kts
07-Feb-19 14:10 39.216324 -119.255244 315 14853ft 351kts
07-Feb-19 14:11 39.285307 -119.342398 315 12346ft 344kts
07-Feb-19 14:12 39.351099 -119.425064 317 12013ft 315kts
07-Feb-19 14:13 39.415384 -119.486945 323 11402ft 274kts
07-Feb-19 14:14 39.475337 -119.543093 324 10141ft 250kts
07-Feb-19 14:15 39.535452 -119.580419 345 9933ft 242kts
07-Feb-19 14:16 39.599845 -119.603309 345 9320ft 236kts
07-Feb-19 14:17 39.660923 -119.625817 345 9026ft 220kts
07-Feb-19 14:18 39.718515 -119.651100 321 9035ft 220kts
07-Feb-19 14:19 39.737313 -119.721593 249 8411ft 214kts
07-Feb-19 14:20 39.694584 -119.767288 185 7433ft 204kts
07-Feb-19 14:21 39.637365 -119.768818 180 6987ft 202kts
07-Feb-19 14:22 39.589098 -119.768999 179 6037ft 151kts
07-Feb-19 14:23 39.547783 -119.769014 178 5194ft 149kts
07-Feb-19 14:24 39.507561 -119.769185 178 4413ft 132kts
07-Feb-19 14:25 39.493056 -119.769762 212 4407ft 10kts
07-Feb-19 14:26 39.492762 -119.770087 229 4408ft 4kts
07-Feb-19 14:27 39.493341 -119.771537 358 4410ft 13kts
07-Feb-19 14:28 39.498202 -119.771519 0 4410ft 18kts
07-Feb-19 14:29 39.502984 -119.771506 359 4410ft 11kts
07-Feb-19 14:30 39.504353 -119.772190 317 4412ft 1kts
07-Feb-19 14:31 39.504481 -119.772333 319 4412ft 0kts
07-Feb-19 14:32 39.504481 -119.772333 319 4412ft 0kts
07-Feb-19 14:33 39.504481 -119.772333 319 4412ft 0kts
07-Feb-19 14:34 39.504481 -119.772333 319 4412ft 0kts
07-Feb-19 14:35 39.504481 -119.772333 319 4412ft 0kts
07-Feb-19 14:36 39.504481 -119.772333 319 4412ft 0kts
07-Feb-19 14:37 39.504481 -119.772333 319 4412ft 0kts
07-Feb-19 14:38 39.504481 -119.772333 319 4412ft 0kts
07-Feb-19 14:39 39.504481 -119.772333 319 4412ft 0kts

Navigation Log

Ident Type
Flight plan parsing failed, navigation log unavailable